createdAt,value
2019-01-04T00:00:01.117Z,2.37
2019-01-04T00:01:06.668Z,3.10
2019-01-04T00:01:45.131Z,1.60
2019-01-04T00:02:21.840Z,2.90
2019-01-04T00:02:58.591Z,2.67
2019-01-04T00:03:35.576Z,2.43
2019-01-04T00:04:16.952Z,2.70
2019-01-04T00:04:53.184Z,3.30
2019-01-04T00:05:29.846Z,2.50
2019-01-04T00:06:06.461Z,2.00
2019-01-04T00:06:43.291Z,2.07
2019-01-04T00:07:19.882Z,2.30
2019-01-04T00:07:56.804Z,2.47
2019-01-04T00:08:33.150Z,2.60
2019-01-04T00:09:09.304Z,2.73
2019-01-04T00:09:45.545Z,1.80
2019-01-04T00:10:21.703Z,2.03
2019-01-04T00:10:57.936Z,2.60
2019-01-04T00:11:34.186Z,1.97
2019-01-04T00:12:10.549Z,2.90
2019-01-04T00:12:46.794Z,2.17
2019-01-04T00:13:23.076Z,2.17
2019-01-04T00:14:01.028Z,2.13
2019-01-04T00:14:37.727Z,2.20
2019-01-04T00:15:13.992Z,2.33
2019-01-04T00:15:50.098Z,1.80
2019-01-04T00:16:26.361Z,2.10
2019-01-04T00:17:03.215Z,2.53
2019-01-04T00:17:39.679Z,2.00
2019-01-04T00:18:16.462Z,2.20
2019-01-04T00:18:53.214Z,2.10
2019-01-04T00:19:29.913Z,1.93
2019-01-04T00:20:06.638Z,2.13
2019-01-04T00:20:43.364Z,1.70
2019-01-04T00:21:20.134Z,2.07
2019-01-04T00:21:56.914Z,2.87
2019-01-04T00:22:33.020Z,1.73
2019-01-04T00:23:09.741Z,2.20
2019-01-04T00:23:46.531Z,2.43
2019-01-04T00:24:23.400Z,2.00
2019-01-04T00:25:00.235Z,2.50
2019-01-04T00:25:36.491Z,1.80
2019-01-04T00:26:12.973Z,1.80
2019-01-04T00:26:49.784Z,2.00
2019-01-04T00:27:26.508Z,2.20
2019-01-04T00:28:03.286Z,2.13
2019-01-04T00:28:40.099Z,1.70
2019-01-04T00:29:16.663Z,1.70
2019-01-04T00:29:53.541Z,1.23
2019-01-04T00:30:30.448Z,1.93
2019-01-04T00:31:07.568Z,1.70
2019-01-04T00:31:43.943Z,1.80
2019-01-04T00:32:20.685Z,1.90
2019-01-04T00:32:57.311Z,1.90
2019-01-04T00:33:34.128Z,1.40
2019-01-04T00:34:11.003Z,1.67
2019-01-04T00:34:47.634Z,1.23
2019-01-04T00:35:24.364Z,1.30
2019-01-04T00:36:00.926Z,1.70
2019-01-04T00:36:38.107Z,1.47
2019-01-04T00:37:15.022Z,1.77
2019-01-04T00:37:51.925Z,1.80
2019-01-04T00:38:28.607Z,1.90
2019-01-04T00:39:07.152Z,1.70
2019-01-04T00:39:43.914Z,1.60
2019-01-04T00:40:20.179Z,1.70
2019-01-04T00:40:56.905Z,1.47
2019-01-04T00:41:35.033Z,1.47
2019-01-04T00:42:11.362Z,1.30
2019-01-04T00:42:47.417Z,1.30
2019-01-04T00:43:23.476Z,2.00
2019-01-04T00:43:59.483Z,2.10
2019-01-04T00:44:38.635Z,1.50
2019-01-04T00:45:14.780Z,2.03
2019-01-04T00:45:51.498Z,1.53
2019-01-04T00:46:28.260Z,1.40
2019-01-04T00:47:05.066Z,1.30
2019-01-04T00:47:41.464Z,1.50
2019-01-04T00:48:17.738Z,1.40
2019-01-04T00:48:55.512Z,1.50
2019-01-04T00:49:32.372Z,1.63
2019-01-04T00:50:09.334Z,1.53
2019-01-04T00:50:45.899Z,2.17
2019-01-04T00:51:23.164Z,2.27
2019-01-04T00:51:59.812Z,2.10
2019-01-04T00:52:36.338Z,1.70
2019-01-04T00:53:13.349Z,1.97
2019-01-04T00:53:50.115Z,1.63
2019-01-04T00:54:27.012Z,1.43
2019-01-04T00:55:14.823Z,1.73
2019-01-04T00:56:33.148Z,1.40
2019-01-04T00:57:32.521Z,1.77
2019-01-04T00:58:44.109Z,1.50
2019-01-04T00:59:57.544Z,2.00
2019-01-04T01:01:33.004Z,1.40
2019-01-04T01:02:43.036Z,1.77
2019-01-04T01:04:13.404Z,1.73
2019-01-04T01:05:43.530Z,1.47
2019-01-04T01:06:57.703Z,1.40
2019-01-04T01:08:12.347Z,2.03
2019-01-04T01:09:24.557Z,1.43
2019-01-04T01:10:35.722Z,2.10
2019-01-04T01:11:51.137Z,1.53
2019-01-04T01:13:13.270Z,1.97
2019-01-04T01:14:54.189Z,1.93
2019-01-04T01:16:09.295Z,1.53
2019-01-04T01:17:38.230Z,1.83
2019-01-04T01:19:16.186Z,1.43
2019-01-04T01:20:17.002Z,1.37
2019-01-04T01:21:17.682Z,1.40
2019-01-04T01:22:35.554Z,1.57
2019-01-04T01:23:52.368Z,1.67
2019-01-04T01:25:11.039Z,2.07
2019-01-04T01:26:23.845Z,2.20
2019-01-04T01:27:33.735Z,1.40
2019-01-04T01:29:08.560Z,1.37
2019-01-04T01:30:29.605Z,2.10
2019-01-04T01:31:39.231Z,1.53
2019-01-04T01:33:03.533Z,1.30
2019-01-04T01:34:13.959Z,1.60
2019-01-04T01:35:32.020Z,1.30
2019-01-04T01:36:27.775Z,2.20
2019-01-04T01:37:51.449Z,1.77
2019-01-04T01:39:02.601Z,1.47
2019-01-04T01:40:49.191Z,1.83
2019-01-04T01:42:01.172Z,1.37
2019-01-04T01:43:24.941Z,1.70
2019-01-04T01:44:32.935Z,1.50
2019-01-04T01:46:03.696Z,1.70
2019-01-04T01:47:06.587Z,1.70
2019-01-04T01:47:50.489Z,2.43
2019-01-04T01:48:53.302Z,1.53
2019-01-04T01:49:58.461Z,1.33
2019-01-04T01:51:14.345Z,1.40
2019-01-04T01:52:02.468Z,1.10
2019-01-04T01:52:43.547Z,1.33
2019-01-04T01:53:19.591Z,1.87
2019-01-04T01:53:55.954Z,1.40
2019-01-04T01:54:32.208Z,1.87
2019-01-04T01:55:09.944Z,1.43
2019-01-04T01:55:46.258Z,1.63
2019-01-04T01:56:22.732Z,1.80
2019-01-04T01:56:58.908Z,1.50
2019-01-04T01:57:35.128Z,1.30
2019-01-04T01:58:11.241Z,1.37
2019-01-04T01:58:47.881Z,1.10
2019-01-04T01:59:24.115Z,1.50
2019-01-04T02:00:05.316Z,1.90
2019-01-04T02:00:41.706Z,1.40
2019-01-04T02:01:18.123Z,1.43
2019-01-04T02:01:57.886Z,1.50
2019-01-04T02:02:36.324Z,1.93
2019-01-04T02:03:12.473Z,1.20
2019-01-04T02:03:48.726Z,1.27
2019-01-04T02:04:25.057Z,1.90
2019-01-04T02:05:01.232Z,2.20
2019-01-04T02:05:37.332Z,1.17
2019-01-04T02:06:13.576Z,1.70
2019-01-04T02:06:49.683Z,1.53
2019-01-04T02:07:25.990Z,1.50
2019-01-04T02:08:02.091Z,1.23
2019-01-04T02:08:38.132Z,1.43
2019-01-04T02:09:14.627Z,1.53
2019-01-04T02:09:50.807Z,2.20
2019-01-04T02:10:27.220Z,1.47
2019-01-04T02:11:03.350Z,1.50
2019-01-04T02:11:41.232Z,1.50
2019-01-04T02:12:18.920Z,1.60
2019-01-04T02:12:55.180Z,1.80
2019-01-04T02:13:31.482Z,1.30
2019-01-04T02:14:07.592Z,1.20
2019-01-04T02:14:43.912Z,1.30
2019-01-04T02:15:20.190Z,1.97
2019-01-04T02:15:56.796Z,1.63
2019-01-04T02:16:34.501Z,1.30
2019-01-04T02:17:12.160Z,1.63
2019-01-04T02:17:48.807Z,1.67
2019-01-04T02:18:26.810Z,1.43
2019-01-04T02:19:02.927Z,1.77
2019-01-04T02:19:39.189Z,1.43
2019-01-04T02:20:15.315Z,1.53
2019-01-04T02:20:51.722Z,1.80
2019-01-04T02:21:28.087Z,1.93
2019-01-04T02:22:04.572Z,1.40
2019-01-04T02:22:40.591Z,1.00
2019-01-04T02:23:16.801Z,1.57
2019-01-04T02:23:53.216Z,2.03
2019-01-04T02:24:29.495Z,1.57
2019-01-04T02:25:05.894Z,1.47
2019-01-04T02:25:42.218Z,1.53
2019-01-04T02:26:18.656Z,1.47
2019-01-04T02:26:55.251Z,1.40
2019-01-04T02:27:33.091Z,1.57
2019-01-04T02:28:09.338Z,1.73
2019-01-04T02:28:45.616Z,2.13
2019-01-04T02:29:21.869Z,1.97
2019-01-04T02:30:01.196Z,2.03
2019-01-04T02:30:37.425Z,1.57
2019-01-04T02:31:13.805Z,1.70
2019-01-04T02:31:50.045Z,1.50
2019-01-04T02:32:27.921Z,1.60
2019-01-04T02:33:04.214Z,1.43
2019-01-04T02:33:40.724Z,1.80
2019-01-04T02:34:19.624Z,2.60
2019-01-04T02:34:55.855Z,1.43
2019-01-04T02:35:33.740Z,1.00
2019-01-04T02:36:09.959Z,1.13
2019-01-04T02:36:46.272Z,1.70
2019-01-04T02:37:22.570Z,1.60
2019-01-04T02:37:58.974Z,1.03
2019-01-04T02:38:35.187Z,1.50
2019-01-04T02:39:13.168Z,1.53
2019-01-04T02:39:49.299Z,1.20
2019-01-04T02:40:27.125Z,1.20
2019-01-04T02:41:04.925Z,1.40
2019-01-04T02:41:42.682Z,1.33
2019-01-04T02:42:18.940Z,1.20
2019-01-04T02:42:55.463Z,1.53
2019-01-04T02:43:32.228Z,1.57
2019-01-04T02:44:08.457Z,1.03
2019-01-04T02:44:44.862Z,1.40
2019-01-04T02:45:21.022Z,1.37
2019-01-04T02:45:57.173Z,1.50
2019-01-04T02:46:33.323Z,1.30
2019-01-04T02:47:09.685Z,1.17
2019-01-04T02:47:45.766Z,1.80
2019-01-04T02:48:22.229Z,1.27
2019-01-04T02:48:58.519Z,1.10
2019-01-04T02:49:34.730Z,1.33
2019-01-04T02:50:10.823Z,0.93
2019-01-04T02:50:46.794Z,1.07
2019-01-04T02:51:22.905Z,1.10
2019-01-04T02:51:59.224Z,0.90
2019-01-04T02:52:35.357Z,1.70
2019-01-04T02:53:11.460Z,0.80
2019-01-04T02:53:47.904Z,1.70
2019-01-04T02:54:24.263Z,1.30
2019-01-04T02:55:00.466Z,2.10
2019-01-04T02:55:36.626Z,1.50
2019-01-04T02:56:12.807Z,1.07
2019-01-04T02:56:48.927Z,1.30
2019-01-04T02:57:25.200Z,1.17
2019-01-04T02:58:02.814Z,1.00
2019-01-04T02:58:39.042Z,1.00
2019-01-04T02:59:15.307Z,0.80
2019-01-04T02:59:52.957Z,1.30
2019-01-04T03:00:29.202Z,1.27
2019-01-04T03:01:05.610Z,0.70
2019-01-04T03:01:41.816Z,1.10
2019-01-04T03:02:18.092Z,1.03
2019-01-04T03:02:54.363Z,0.97
2019-01-04T03:03:30.518Z,1.10
2019-01-04T03:04:06.611Z,1.37
2019-01-04T03:04:42.701Z,1.30
2019-01-04T03:05:18.800Z,1.00
2019-01-04T03:05:55.012Z,1.50
2019-01-04T03:06:31.306Z,1.10
2019-01-04T03:07:07.436Z,0.83
2019-01-04T03:07:44.021Z,0.97
2019-01-04T03:08:20.254Z,1.33
2019-01-04T03:08:56.362Z,1.10
2019-01-04T03:09:32.673Z,0.90
2019-01-04T03:10:09.101Z,1.00
2019-01-04T03:10:45.217Z,1.30
2019-01-04T03:11:21.419Z,1.00
2019-01-04T03:11:57.501Z,1.10
2019-01-04T03:12:33.771Z,1.20
2019-01-04T03:13:10.031Z,1.70
2019-01-04T03:13:46.310Z,1.33
2019-01-04T03:14:22.718Z,1.00
2019-01-04T03:14:59.245Z,1.30
2019-01-04T03:15:37.133Z,1.27
2019-01-04T03:16:13.470Z,1.27
2019-01-04T03:16:49.799Z,1.30
2019-01-04T03:17:25.960Z,1.40
2019-01-04T03:18:02.203Z,1.10
2019-01-04T03:18:38.336Z,1.37
2019-01-04T03:19:14.733Z,1.27
2019-01-04T03:19:50.837Z,1.30
2019-01-04T03:20:27.006Z,1.27
2019-01-04T03:21:03.356Z,1.87
2019-01-04T03:21:39.745Z,1.47
2019-01-04T03:22:16.049Z,1.03
2019-01-04T03:22:52.246Z,1.60
2019-01-04T03:23:28.633Z,1.50
2019-01-04T03:24:04.803Z,1.00
2019-01-04T03:24:41.346Z,1.70
2019-01-04T03:25:17.586Z,1.80
2019-01-04T03:25:53.867Z,1.43
2019-01-04T03:26:30.027Z,1.40
2019-01-04T03:27:06.401Z,2.17
2019-01-04T03:27:42.496Z,1.50
2019-01-04T03:28:18.713Z,1.50
2019-01-04T03:28:54.892Z,1.10
2019-01-04T03:29:32.959Z,1.33
2019-01-04T03:30:10.707Z,1.00
2019-01-04T03:30:46.870Z,1.23
2019-01-04T03:31:22.938Z,1.53
2019-01-04T03:31:59.158Z,1.20
2019-01-04T03:32:35.410Z,1.10
2019-01-04T03:33:11.732Z,1.00
2019-01-04T03:33:48.036Z,1.03
2019-01-04T03:34:24.310Z,0.90
2019-01-04T03:35:00.352Z,1.00
2019-01-04T03:35:36.777Z,1.40
2019-01-04T03:36:12.900Z,1.30
2019-01-04T03:36:49.133Z,1.27
2019-01-04T03:37:25.273Z,1.07
2019-01-04T03:38:01.553Z,1.07
2019-01-04T03:38:37.828Z,1.37
2019-01-04T03:39:13.945Z,1.10
2019-01-04T03:39:50.365Z,1.33
2019-01-04T03:40:26.458Z,1.30
2019-01-04T03:41:02.775Z,1.97
2019-01-04T03:41:39.068Z,1.27
2019-01-04T03:42:15.202Z,1.20
2019-01-04T03:42:51.750Z,1.20
2019-01-04T03:43:28.041Z,1.17
2019-01-04T03:44:04.332Z,1.60
2019-01-04T03:44:40.663Z,1.43
2019-01-04T03:45:16.937Z,0.87
2019-01-04T03:45:53.122Z,0.83
2019-01-04T03:46:29.237Z,0.90
2019-01-04T03:47:05.758Z,1.30
2019-01-04T03:47:42.107Z,0.80
2019-01-04T03:48:18.229Z,1.23
2019-01-04T03:48:54.710Z,1.13
2019-01-04T03:49:31.124Z,1.03
2019-01-04T03:50:07.667Z,1.20
2019-01-04T03:50:44.097Z,1.47
2019-01-04T03:51:20.489Z,1.50
2019-01-04T03:51:56.783Z,1.40
2019-01-04T03:52:33.048Z,1.40
2019-01-04T03:53:09.143Z,1.10
2019-01-04T03:53:45.202Z,1.20
2019-01-04T03:54:21.735Z,0.70
2019-01-04T03:54:58.283Z,1.33
2019-01-04T03:55:34.415Z,1.20
2019-01-04T03:56:10.762Z,1.23
2019-01-04T03:56:46.932Z,1.33
2019-01-04T03:57:23.170Z,1.10
2019-01-04T03:57:59.643Z,1.90
2019-01-04T03:58:36.059Z,1.73
2019-01-04T03:59:12.401Z,1.70
2019-01-04T03:59:48.700Z,1.17
2019-01-04T04:00:25.017Z,1.67
2019-01-04T04:01:01.347Z,1.57
2019-01-04T04:01:37.597Z,1.33
2019-01-04T04:02:13.956Z,1.27
2019-01-04T04:02:50.446Z,1.40
2019-01-04T04:03:26.743Z,1.63
2019-01-04T04:04:03.026Z,1.20
2019-01-04T04:04:39.221Z,1.50
2019-01-04T04:05:15.652Z,1.20
2019-01-04T04:05:51.961Z,1.30
2019-01-04T04:06:28.349Z,1.40
2019-01-04T04:07:04.564Z,1.37
2019-01-04T04:07:40.623Z,1.30
2019-01-04T04:08:17.000Z,1.43
2019-01-04T04:08:53.160Z,0.90
2019-01-04T04:09:29.371Z,1.50
2019-01-04T04:10:05.803Z,1.10
2019-01-04T04:10:41.967Z,1.00
2019-01-04T04:11:18.280Z,1.30
2019-01-04T04:11:54.420Z,1.27
2019-01-04T04:12:32.379Z,1.20
2019-01-04T04:13:08.545Z,1.00
2019-01-04T04:13:44.859Z,1.50
2019-01-04T04:14:21.614Z,1.10
2019-01-04T04:14:57.953Z,1.47
2019-01-04T04:15:34.611Z,1.37
2019-01-04T04:16:10.858Z,1.23
2019-01-04T04:16:48.649Z,1.10
2019-01-04T04:17:24.797Z,1.87
2019-01-04T04:18:01.135Z,1.43
2019-01-04T04:18:37.164Z,2.00
2019-01-04T04:19:13.332Z,1.60
2019-01-04T04:19:49.671Z,1.20
2019-01-04T04:20:25.848Z,1.10
2019-01-04T04:21:03.566Z,1.10
2019-01-04T04:21:39.751Z,1.27
2019-01-04T04:22:16.101Z,2.00
2019-01-04T04:22:54.634Z,1.63
2019-01-04T04:23:30.968Z,1.30
2019-01-04T04:24:07.208Z,1.33
2019-01-04T04:24:43.578Z,1.50
2019-01-04T04:25:19.896Z,1.20
2019-01-04T04:25:57.193Z,1.23
2019-01-04T04:26:33.800Z,1.60
2019-01-04T04:27:10.031Z,1.40
2019-01-04T04:27:46.183Z,1.53
2019-01-04T04:28:22.708Z,1.27
2019-01-04T04:28:58.892Z,1.30
2019-01-04T04:29:35.418Z,1.60
2019-01-04T04:30:11.734Z,1.40
2019-01-04T04:30:48.028Z,2.00
2019-01-04T04:31:24.333Z,1.67
2019-01-04T04:32:00.762Z,1.80
2019-01-04T04:32:37.129Z,1.90
2019-01-04T04:33:13.673Z,1.67
2019-01-04T04:33:50.055Z,1.93
2019-01-04T04:34:26.356Z,2.30
2019-01-04T04:35:02.552Z,1.93
2019-01-04T04:35:38.754Z,1.70
2019-01-04T04:36:14.902Z,2.20
2019-01-04T04:36:51.025Z,1.33
2019-01-04T04:37:27.493Z,1.60
2019-01-04T04:38:03.629Z,1.83
2019-01-04T04:38:39.845Z,1.77
2019-01-04T04:39:15.967Z,1.30
2019-01-04T04:39:52.081Z,2.13
2019-01-04T04:40:30.804Z,1.50
2019-01-04T04:41:07.020Z,1.27
2019-01-04T04:41:43.156Z,1.60
2019-01-04T04:42:19.605Z,1.53
2019-01-04T04:42:55.902Z,1.67
2019-01-04T04:43:32.529Z,2.27
2019-01-04T04:44:08.726Z,1.53
2019-01-04T04:44:44.823Z,1.50
2019-01-04T04:45:21.286Z,2.00
2019-01-04T04:45:57.391Z,1.93
2019-01-04T04:46:33.727Z,2.10
2019-01-04T04:47:09.857Z,1.40
2019-01-04T04:47:47.764Z,1.70
2019-01-04T04:48:24.061Z,1.70
2019-01-04T04:49:00.194Z,1.50
2019-01-04T04:49:36.712Z,2.10
2019-01-04T04:50:14.469Z,2.27
2019-01-04T04:50:50.967Z,1.77
2019-01-04T04:51:27.267Z,2.10
2019-01-04T04:52:03.413Z,2.40
2019-01-04T04:52:39.577Z,1.53
2019-01-04T04:53:15.683Z,1.83
2019-01-04T04:53:52.004Z,1.57
2019-01-04T04:54:28.171Z,2.20
2019-01-04T04:55:04.298Z,2.23
2019-01-04T04:55:40.477Z,1.57
2019-01-04T04:56:16.606Z,1.70
2019-01-04T04:56:52.734Z,1.60
2019-01-04T04:57:28.978Z,1.60
2019-01-04T04:58:05.115Z,1.40
2019-01-04T04:58:42.760Z,1.80
2019-01-04T04:59:18.965Z,1.93
2019-01-04T04:59:55.378Z,1.70
2019-01-04T05:00:33.094Z,1.50
2019-01-04T05:01:09.476Z,1.30
2019-01-04T05:01:45.961Z,1.87
2019-01-04T05:02:22.272Z,1.70
2019-01-04T05:02:58.419Z,1.70
2019-01-04T05:03:34.579Z,1.73
2019-01-04T05:04:10.843Z,2.33
2019-01-04T05:04:47.347Z,2.00
2019-01-04T05:05:23.742Z,2.00
2019-01-04T05:05:59.845Z,1.97
2019-01-04T05:06:36.297Z,1.97
2019-01-04T05:07:12.396Z,1.30
2019-01-04T05:07:49.455Z,2.13
2019-01-04T05:08:25.525Z,1.90
2019-01-04T05:09:01.684Z,1.13
2019-01-04T05:09:38.061Z,1.47
2019-01-04T05:10:14.313Z,1.77
2019-01-04T05:10:50.635Z,1.77
2019-01-04T05:11:26.973Z,1.57
2019-01-04T05:12:03.126Z,2.27
2019-01-04T05:12:39.546Z,3.10
2019-01-04T05:13:15.898Z,2.80
2019-01-04T05:13:52.277Z,2.53
2019-01-04T05:14:28.765Z,1.73
2019-01-04T05:15:04.915Z,2.03
2019-01-04T05:15:41.134Z,2.17
2019-01-04T05:16:17.351Z,1.50
2019-01-04T05:16:53.585Z,1.67
2019-01-04T05:17:30.062Z,1.80
2019-01-04T05:18:06.403Z,1.80
2019-01-04T05:18:42.617Z,1.97
2019-01-04T05:19:18.894Z,1.97
2019-01-04T05:19:55.198Z,2.37
2019-01-04T05:20:31.287Z,1.67
2019-01-04T05:21:07.571Z,1.90
2019-01-04T05:21:43.839Z,2.03
2019-01-04T05:22:20.502Z,1.90
2019-01-04T05:22:56.751Z,2.23
2019-01-04T05:23:32.943Z,2.10
2019-01-04T05:24:09.246Z,2.90
2019-01-04T05:24:45.336Z,2.13
2019-01-04T05:25:21.614Z,2.63
2019-01-04T05:25:59.230Z,2.23
2019-01-04T05:26:35.546Z,1.93
2019-01-04T05:27:11.645Z,2.73
2019-01-04T05:27:47.772Z,2.20
2019-01-04T05:28:24.092Z,2.53
2019-01-04T05:29:00.424Z,2.67
2019-01-04T05:29:36.784Z,3.00
2019-01-04T05:30:13.267Z,2.37
2019-01-04T05:30:49.430Z,2.63
2019-01-04T05:31:25.784Z,3.23
2019-01-04T05:32:01.933Z,2.67
2019-01-04T05:32:38.159Z,3.00
2019-01-04T05:33:14.270Z,2.40
2019-01-04T05:33:50.874Z,2.43
2019-01-04T05:34:26.946Z,2.40
2019-01-04T05:35:03.128Z,2.83
2019-01-04T05:35:39.352Z,2.67
2019-01-04T05:36:15.692Z,2.93
2019-01-04T05:36:51.947Z,2.23
2019-01-04T05:37:28.150Z,2.60
2019-01-04T05:38:04.440Z,2.93
2019-01-04T05:38:40.547Z,3.07
2019-01-04T05:39:16.941Z,2.50
2019-01-04T05:39:53.247Z,2.20
2019-01-04T05:40:29.700Z,2.10
2019-01-04T05:41:06.027Z,2.47
2019-01-04T05:41:43.442Z,3.07
2019-01-04T05:42:19.548Z,2.93
2019-01-04T05:42:55.749Z,2.50
2019-01-04T05:43:31.910Z,2.83
2019-01-04T05:44:08.217Z,2.50
2019-01-04T05:44:44.645Z,2.50
2019-01-04T05:45:20.832Z,2.47
2019-01-04T05:45:57.104Z,3.10
2019-01-04T05:46:33.404Z,2.60
2019-01-04T05:47:09.732Z,2.70
2019-01-04T05:47:46.041Z,2.10
2019-01-04T05:48:23.859Z,1.80
2019-01-04T05:49:00.145Z,2.10
2019-01-04T05:49:37.865Z,2.27
2019-01-04T05:50:14.116Z,2.20
2019-01-04T05:50:50.276Z,2.20
2019-01-04T05:51:26.433Z,2.00
2019-01-04T05:52:02.770Z,2.90
2019-01-04T05:52:38.863Z,2.10
2019-01-04T05:53:15.274Z,2.13
2019-01-04T05:53:51.799Z,1.73
2019-01-04T05:54:28.239Z,2.23
2019-01-04T05:55:05.830Z,1.90
2019-01-04T05:55:42.116Z,2.87
2019-01-04T05:56:18.779Z,1.70
2019-01-04T05:56:54.923Z,2.60
2019-01-04T05:57:31.373Z,1.80
2019-01-04T05:58:07.486Z,2.13
2019-01-04T05:58:45.156Z,2.87
2019-01-04T05:59:21.324Z,2.33
2019-01-04T05:59:57.511Z,2.50
2019-01-04T06:00:33.839Z,2.00
2019-01-04T06:01:09.952Z,2.20
2019-01-04T06:01:46.154Z,2.23
2019-01-04T06:02:22.290Z,2.10
2019-01-04T06:02:58.495Z,2.70
2019-01-04T06:03:34.797Z,3.13
2019-01-04T06:04:10.937Z,2.27
2019-01-04T06:04:47.423Z,2.40
2019-01-04T06:05:23.884Z,2.33
2019-01-04T06:06:00.182Z,2.50
2019-01-04T06:06:36.777Z,2.17
2019-01-04T06:07:12.891Z,1.83
2019-01-04T06:07:49.197Z,1.97
2019-01-04T06:08:25.454Z,2.10
2019-01-04T06:09:01.760Z,2.13
2019-01-04T06:09:37.982Z,2.07
2019-01-04T06:10:14.287Z,2.13
2019-01-04T06:10:50.545Z,2.30
2019-01-04T06:11:26.651Z,1.93
2019-01-04T06:12:02.891Z,2.23
2019-01-04T06:12:39.073Z,2.97
2019-01-04T06:13:15.238Z,2.70
2019-01-04T06:13:51.646Z,2.57
2019-01-04T06:14:28.003Z,2.30
2019-01-04T06:15:04.390Z,2.43
2019-01-04T06:15:40.548Z,2.63
2019-01-04T06:16:16.859Z,2.13
2019-01-04T06:16:53.019Z,2.10
2019-01-04T06:17:29.224Z,2.60
2019-01-04T06:18:05.722Z,2.40
2019-01-04T06:18:41.917Z,2.07
2019-01-04T06:19:19.776Z,2.70
2019-01-04T06:19:55.916Z,2.70
2019-01-04T06:20:32.017Z,1.70
2019-01-04T06:21:08.240Z,2.20
2019-01-04T06:21:44.630Z,2.23
2019-01-04T06:22:20.768Z,2.40
2019-01-04T06:22:56.878Z,2.57
2019-01-04T06:23:33.183Z,2.20
2019-01-04T06:24:09.620Z,1.93
2019-01-04T06:24:46.136Z,2.53
2019-01-04T06:25:22.277Z,2.80
2019-01-04T06:25:58.723Z,2.07
2019-01-04T06:26:34.840Z,2.87
2019-01-04T06:27:12.507Z,2.07
2019-01-04T06:27:48.774Z,2.47
2019-01-04T06:28:24.911Z,2.00
2019-01-04T06:29:01.094Z,2.30
2019-01-04T06:29:37.192Z,2.10
2019-01-04T06:30:13.442Z,2.03
2019-01-04T06:30:49.821Z,2.03
2019-01-04T06:31:25.991Z,2.00
2019-01-04T06:32:03.854Z,2.13
2019-01-04T06:32:40.251Z,2.80
2019-01-04T06:33:18.062Z,2.67
2019-01-04T06:33:55.947Z,2.90
2019-01-04T06:34:32.291Z,3.20
2019-01-04T06:35:08.738Z,2.87
2019-01-04T06:35:45.134Z,2.90
2019-01-04T06:36:21.426Z,3.17
2019-01-04T06:36:57.831Z,3.57
2019-01-04T06:37:34.260Z,3.70
2019-01-04T06:38:10.673Z,2.67
2019-01-04T06:38:46.892Z,2.77
2019-01-04T06:39:23.062Z,2.90
2019-01-04T06:39:59.591Z,3.00
2019-01-04T06:40:35.705Z,2.70
2019-01-04T06:41:11.818Z,2.37
2019-01-04T06:41:47.918Z,2.83
2019-01-04T06:42:24.105Z,2.77
2019-01-04T06:43:00.363Z,2.40
2019-01-04T06:43:36.616Z,2.93
2019-01-04T06:44:12.987Z,2.80
2019-01-04T06:44:49.202Z,2.90
2019-01-04T06:45:26.909Z,2.90
2019-01-04T06:46:02.995Z,2.90
2019-01-04T06:47:13.439Z,2.20
2019-01-04T06:47:49.654Z,3.40
2019-01-04T06:48:25.963Z,2.93
2019-01-04T06:49:02.276Z,3.07
2019-01-04T06:49:38.404Z,3.30
2019-01-04T06:50:14.483Z,3.47
2019-01-04T06:50:52.449Z,2.30
2019-01-04T06:51:28.899Z,3.27
2019-01-04T06:52:05.091Z,2.87
2019-01-04T06:52:41.233Z,3.03
2019-01-04T06:53:17.368Z,2.90
2019-01-04T06:53:55.077Z,2.93
2019-01-04T06:55:05.965Z,2.53
2019-01-04T06:55:56.868Z,2.60
2019-01-04T06:56:33.038Z,3.27
2019-01-04T06:57:09.148Z,3.10
2019-01-04T06:57:45.372Z,3.83
2019-01-04T06:58:21.594Z,2.50
2019-01-04T06:58:57.898Z,2.60
2019-01-04T06:59:34.343Z,3.20
2019-01-04T07:00:11.831Z,2.33
2019-01-04T07:00:48.121Z,2.60
2019-01-04T07:01:25.958Z,2.90
2019-01-04T07:02:02.344Z,2.60
2019-01-04T07:02:38.505Z,3.13
2019-01-04T07:03:15.038Z,2.83
2019-01-04T07:03:51.557Z,3.23
2019-01-04T07:04:27.848Z,3.00
2019-01-04T07:05:04.170Z,3.20
2019-01-04T07:05:40.825Z,3.23
2019-01-04T07:06:17.293Z,2.87
2019-01-04T07:06:53.582Z,3.00
2019-01-04T07:07:29.884Z,3.40
2019-01-04T07:08:06.329Z,3.50
2019-01-04T07:08:42.639Z,2.73
2019-01-04T07:09:18.860Z,2.37
2019-01-04T07:09:55.077Z,3.10
2019-01-04T07:10:31.430Z,3.47
2019-01-04T07:11:07.742Z,3.50
2019-01-04T07:11:44.262Z,3.03
2019-01-04T07:12:20.385Z,4.10
2019-01-04T07:12:58.104Z,3.53
2019-01-04T07:13:34.211Z,2.83
2019-01-04T07:14:10.368Z,4.00
2019-01-04T07:14:46.558Z,3.30
2019-01-04T07:15:22.811Z,3.93
2019-01-04T07:15:58.949Z,3.80
2019-01-04T07:16:35.306Z,3.27
2019-01-04T07:17:11.660Z,3.40
2019-01-04T07:17:47.821Z,3.37
2019-01-04T07:18:24.365Z,3.43
2019-01-04T07:19:00.537Z,3.10
2019-01-04T07:19:36.944Z,2.87
2019-01-04T07:20:13.469Z,3.90
2019-01-04T07:20:49.724Z,3.80
2019-01-04T07:21:26.235Z,3.40
2019-01-04T07:22:02.322Z,3.90
2019-01-04T07:22:38.459Z,3.27
2019-01-04T07:23:14.558Z,3.10
2019-01-04T07:23:50.920Z,3.57
2019-01-04T07:24:27.021Z,3.83
2019-01-04T07:25:03.265Z,3.10
2019-01-04T07:25:39.404Z,3.37
2019-01-04T07:26:15.792Z,3.60
2019-01-04T07:26:52.179Z,3.40
2019-01-04T07:27:28.443Z,3.30
2019-01-04T07:28:04.660Z,3.70
2019-01-04T07:28:40.924Z,3.87
2019-01-04T07:29:17.331Z,3.40
2019-01-04T07:29:53.623Z,3.63
2019-01-04T07:30:29.955Z,3.40
2019-01-04T07:31:06.210Z,3.40
2019-01-04T07:31:42.569Z,3.83
2019-01-04T07:32:18.769Z,3.63
2019-01-04T07:32:55.104Z,3.73
2019-01-04T07:33:31.362Z,4.30
2019-01-04T07:34:07.770Z,3.70
2019-01-04T07:34:43.866Z,3.50
2019-01-04T07:35:19.879Z,4.00
2019-01-04T07:35:56.207Z,3.00
2019-01-04T07:36:33.943Z,3.50
2019-01-04T07:37:10.592Z,3.30
2019-01-04T07:37:46.745Z,3.40
2019-01-04T07:38:22.920Z,3.23
2019-01-04T07:38:59.250Z,3.27
2019-01-04T07:39:35.469Z,2.90
2019-01-04T07:40:11.755Z,5.17
2019-01-04T07:40:47.930Z,3.50
2019-01-04T07:41:24.300Z,3.43
2019-01-04T07:42:00.450Z,3.73
2019-01-04T07:42:36.807Z,3.03
2019-01-04T07:43:16.472Z,3.67
2019-01-04T07:43:51.138Z,3.10
2019-01-04T07:44:27.412Z,3.20
2019-01-04T07:45:03.685Z,3.50
2019-01-04T07:45:39.930Z,3.47
2019-01-04T07:46:16.317Z,3.43
2019-01-04T07:46:52.564Z,3.20
2019-01-04T07:47:28.699Z,3.27
2019-01-04T07:48:04.895Z,3.47
2019-01-04T07:48:41.177Z,3.60
2019-01-04T07:49:17.597Z,4.00
2019-01-04T07:49:53.723Z,2.70
2019-01-04T07:50:29.872Z,3.10
2019-01-04T07:51:06.056Z,3.33
2019-01-04T07:51:42.394Z,3.67
2019-01-04T07:52:18.653Z,3.60
2019-01-04T07:52:54.763Z,3.20
2019-01-04T07:53:30.900Z,3.90
2019-01-04T07:54:07.022Z,3.37
2019-01-04T07:54:43.096Z,3.30
2019-01-04T07:55:19.213Z,3.27
2019-01-04T07:55:55.499Z,2.90
2019-01-04T07:56:31.863Z,3.43
2019-01-04T07:57:08.002Z,2.97
2019-01-04T07:57:44.118Z,3.17
2019-01-04T07:58:20.266Z,3.20
2019-01-04T07:58:56.642Z,3.70
2019-01-04T07:59:32.771Z,2.90
2019-01-04T08:00:11.966Z,3.83
2019-01-04T08:00:48.263Z,4.13
2019-01-04T08:01:25.962Z,3.30
2019-01-04T08:02:20.877Z,3.43
2019-01-04T08:02:59.407Z,2.97
2019-01-04T08:03:35.540Z,4.30
2019-01-04T08:04:11.638Z,3.33
2019-01-04T08:04:47.715Z,3.50
2019-01-04T08:05:30.385Z,3.60
2019-01-04T08:06:06.711Z,3.60
2019-01-04T08:06:44.450Z,3.30
2019-01-04T08:07:20.820Z,3.20
2019-01-04T08:07:57.446Z,3.60
2019-01-04T08:08:33.543Z,3.17
2019-01-04T08:09:09.851Z,4.43
2019-01-04T08:09:46.183Z,2.80
2019-01-04T08:10:22.316Z,3.97
2019-01-04T08:11:00.020Z,3.90
2019-01-04T08:11:36.168Z,3.40
2019-01-04T08:12:12.459Z,3.10
2019-01-04T08:12:48.634Z,3.87
2019-01-04T08:13:24.905Z,3.63
2019-01-04T08:14:00.963Z,3.63
2019-01-04T08:14:37.265Z,3.53
2019-01-04T08:15:13.555Z,3.30
2019-01-04T08:15:49.706Z,3.17
2019-01-04T08:16:26.046Z,2.77
2019-01-04T08:17:02.194Z,3.30
2019-01-04T08:17:38.399Z,4.00
2019-01-04T08:18:14.630Z,3.87
2019-01-04T08:18:50.795Z,3.47
2019-01-04T08:19:26.907Z,3.00
2019-01-04T08:20:04.580Z,3.20
2019-01-04T08:20:40.712Z,3.70
2019-01-04T08:21:16.878Z,3.50
2019-01-04T08:21:54.777Z,3.03
2019-01-04T08:22:32.485Z,3.73
2019-01-04T08:23:08.719Z,3.13
2019-01-04T08:23:44.976Z,3.47
2019-01-04T08:24:21.166Z,3.80
2019-01-04T08:24:57.470Z,3.67
2019-01-04T08:25:33.751Z,3.30
2019-01-04T08:26:09.840Z,3.93
2019-01-04T08:26:47.613Z,3.17
2019-01-04T08:27:23.725Z,3.60
2019-01-04T08:28:00.018Z,4.87
2019-01-04T08:28:37.939Z,2.97
2019-01-04T08:29:14.276Z,3.30
2019-01-04T08:29:50.570Z,3.77
2019-01-04T08:30:26.800Z,3.67
2019-01-04T08:31:04.587Z,4.13
2019-01-04T08:31:40.793Z,3.30
2019-01-04T08:32:16.926Z,3.40
2019-01-04T08:32:53.303Z,4.10
2019-01-04T08:33:29.433Z,4.00
2019-01-04T08:34:05.916Z,4.30
2019-01-04T08:34:42.141Z,2.73
2019-01-04T08:35:18.401Z,4.07
2019-01-04T08:35:54.804Z,3.30
2019-01-04T08:36:31.081Z,3.20
2019-01-04T08:37:07.346Z,3.10